Terminal Aerodrome Forecast
Issued by NWS

Home | Current Version | Previous Version | Text Only | Print | Product List | Glossary On
Versions: 1 2 3 4 5 6 7 8 9 10 11 12 13 14 15 16 17 18 19 20 21 22 23
000
FTUS46 KLOX 061517 AAA
TAFLGB
TAF AMD
KLGB 061517Z 0615/0712 VRB03KT 5SM -SHRA BR SCT025 BKN050
     FM061600 VRB04KT P6SM -SHRA VCTS SCT025CB OVC040
     FM061800 18007KT P6SM -SHRA VCTS BKN020CB OVC040
     FM062200 22009KT P6SM VCSH SCT025 BKN050
     FM070400 30006KT P6SM VCSH SCT025 BKN050
     FM071000 VRB03KT P6SM -SHRA SCT025 BKN040=

USA.gov is the U.S. government's official web portal to all federal, state and local government web resources and services.